createdAt,value
2018-09-18T00:03:26.180Z,18.03
2018-09-18T00:07:29.051Z,16.47
2018-09-18T00:11:32.159Z,18.40
2018-09-18T00:15:35.279Z,17.23
2018-09-18T00:19:38.208Z,19.70
2018-09-18T00:23:41.296Z,18.60
2018-09-18T00:27:44.227Z,17.70
2018-09-18T00:31:47.120Z,17.87
2018-09-18T00:35:50.067Z,19.13
2018-09-18T00:39:52.944Z,16.90
2018-09-18T00:43:56.093Z,18.70
2018-09-18T00:47:58.950Z,17.43
2018-09-18T00:52:02.095Z,18.17
2018-09-18T00:56:05.189Z,19.50
2018-09-18T01:00:08.123Z,17.47
2018-09-18T01:04:11.203Z,17.83
2018-09-18T01:08:14.235Z,18.17
2018-09-18T01:12:17.246Z,19.10
2018-09-18T01:16:20.375Z,18.27
2018-09-18T01:20:23.474Z,18.30
2018-09-18T01:24:26.395Z,18.63
2018-09-18T01:28:29.331Z,18.30
2018-09-18T01:32:32.456Z,18.70
2018-09-18T01:36:35.376Z,14.87
2018-09-18T01:40:38.549Z,16.83
2018-09-18T01:44:41.667Z,19.43
2018-09-18T01:48:44.588Z,18.30
2018-09-18T01:52:47.675Z,16.17
2018-09-18T01:56:50.610Z,19.00
2018-09-18T02:00:53.485Z,16.67
2018-09-18T02:04:56.623Z,17.13
2018-09-18T02:08:59.700Z,17.93
2018-09-18T02:13:03.195Z,18.10
2018-09-18T02:17:06.467Z,16.20
2018-09-18T02:21:09.417Z,16.00
2018-09-18T02:25:12.507Z,16.67
2018-09-18T02:29:15.667Z,18.37
2018-09-18T02:33:18.531Z,18.40
2018-09-18T02:37:21.712Z,17.47
2018-09-18T02:41:24.596Z,17.10
2018-09-18T02:45:27.519Z,16.37
2018-09-18T02:49:30.625Z,15.27
2018-09-18T02:53:33.998Z,15.07
2018-09-18T02:57:36.880Z,15.40
2018-09-18T03:01:40.045Z,17.40
2018-09-18T03:05:42.994Z,15.60
2018-09-18T03:09:45.926Z,15.10
2018-09-18T03:13:49.184Z,15.30
2018-09-18T03:17:52.122Z,16.77
2018-09-18T03:21:54.990Z,14.60
2018-09-18T03:25:58.116Z,15.23
2018-09-18T03:30:01.235Z,16.83
2018-09-18T03:34:04.179Z,15.67
2018-09-18T03:38:07.055Z,17.73
2018-09-18T03:42:10.196Z,15.37
2018-09-18T03:46:13.100Z,16.10
2018-09-18T03:50:16.244Z,15.80
2018-09-18T03:54:19.331Z,16.67
2018-09-18T03:58:22.268Z,16.07
2018-09-18T04:02:25.368Z,17.40
2018-09-18T04:06:28.280Z,15.53
2018-09-18T04:10:31.147Z,15.53
2018-09-18T04:14:34.474Z,16.27
2018-09-18T04:18:37.577Z,17.03
2018-09-18T04:22:40.490Z,16.30
2018-09-18T04:26:43.372Z,15.97
2018-09-18T04:30:46.544Z,16.77
2018-09-18T04:34:49.428Z,16.10
2018-09-18T04:38:52.719Z,16.77
2018-09-18T04:42:55.834Z,15.37
2018-09-18T04:46:58.698Z,15.47
2018-09-18T04:51:01.843Z,15.30
2018-09-18T04:55:04.716Z,17.30
2018-09-18T04:59:07.653Z,15.77
2018-09-18T05:03:10.512Z,16.10
2018-09-18T05:07:13.614Z,15.90
2018-09-18T05:11:16.483Z,17.00
2018-09-18T05:15:19.519Z,16.47
2018-09-18T05:19:22.650Z,15.70
2018-09-18T05:23:25.555Z,16.03
2018-09-18T05:27:28.430Z,17.30
2018-09-18T05:31:31.560Z,17.07
2018-09-18T05:35:34.431Z,16.97
2018-09-18T05:39:37.506Z,15.90
2018-09-18T05:43:40.383Z,16.47
2018-09-18T05:47:43.410Z,15.53
2018-09-18T05:51:46.283Z,16.17
2018-09-18T05:55:49.198Z,16.60
2018-09-18T05:59:52.296Z,16.63
2018-09-18T06:03:55.302Z,16.57
2018-09-18T06:07:58.487Z,16.33
2018-09-18T06:12:01.645Z,16.60
2018-09-18T06:16:04.504Z,16.10
2018-09-18T06:20:07.624Z,15.10
2018-09-18T06:24:10.499Z,14.50
2018-09-18T06:28:13.655Z,15.43
2018-09-18T06:32:16.608Z,14.73
2018-09-18T06:36:19.876Z,15.47
2018-09-18T06:40:22.778Z,15.70
2018-09-18T06:44:25.734Z,14.87
2018-09-18T06:48:28.819Z,14.63
2018-09-18T06:52:31.739Z,15.10
2018-09-18T06:56:34.618Z,16.80
2018-09-18T07:00:37.776Z,14.40
2018-09-18T07:04:40.647Z,14.43
2018-09-18T07:08:43.741Z,12.77
2018-09-18T07:12:47.118Z,14.20
2018-09-18T07:16:50.016Z,13.43
2018-09-18T07:20:52.880Z,12.23
2018-09-18T07:24:56.225Z,12.30
2018-09-18T07:28:59.016Z,12.37
2018-09-18T07:33:01.975Z,11.40
2018-09-18T07:37:05.116Z,12.17
2018-09-18T07:41:08.078Z,10.73
2018-09-18T07:45:10.882Z,10.50
2018-09-18T07:49:14.008Z,9.83
2018-09-18T07:53:17.073Z,10.07
2018-09-18T07:57:20.000Z,9.50
2018-09-18T08:01:23.061Z,9.80
2018-09-18T08:05:26.263Z,8.70
2018-09-18T08:09:29.267Z,8.63
2018-09-18T08:13:32.392Z,8.00
2018-09-18T08:17:35.267Z,9.20
2018-09-18T08:21:38.207Z,6.73
2018-09-18T08:25:41.329Z,5.87
2018-09-18T08:29:44.219Z,6.70
2018-09-18T08:33:47.143Z,7.50
2018-09-18T08:37:50.356Z,7.27
2018-09-18T08:41:53.220Z,7.10
2018-09-18T08:45:56.143Z,7.40
2018-09-18T08:49:59.083Z,7.00
2018-09-18T08:54:02.161Z,7.60
2018-09-18T08:58:05.152Z,6.83
2018-09-18T09:02:08.256Z,6.87
2018-09-18T09:06:11.394Z,7.10
2018-09-18T09:10:14.573Z,7.80
2018-09-18T09:14:17.631Z,6.57
2018-09-18T09:18:20.556Z,7.30
2018-09-18T09:22:23.406Z,7.93
2018-09-18T09:26:27.078Z,7.77
2018-09-18T09:30:29.896Z,8.20
2018-09-18T09:34:32.811Z,7.40
2018-09-18T09:38:35.914Z,8.27
2018-09-18T09:42:39.063Z,6.90
2018-09-18T09:46:41.958Z,8.17
2018-09-18T09:50:45.967Z,7.80
2018-09-18T09:54:49.048Z,7.23
2018-09-18T09:58:51.960Z,7.80
2018-09-18T10:02:54.895Z,7.33
2018-09-18T10:06:57.723Z,8.03
2018-09-18T10:11:00.730Z,7.60
2018-09-18T10:15:03.901Z,8.50
2018-09-18T10:19:06.751Z,6.50
2018-09-18T10:23:09.867Z,7.93
2018-09-18T10:27:12.940Z,7.90
2018-09-18T10:31:15.844Z,7.30
2018-09-18T10:35:18.937Z,7.10
2018-09-18T10:39:21.908Z,7.70
2018-09-18T10:43:24.757Z,8.63
2018-09-18T10:47:27.887Z,8.00
2018-09-18T10:51:30.734Z,8.33
2018-09-18T10:55:33.762Z,9.07
2018-09-18T10:59:36.540Z,8.77
2018-09-18T11:03:39.649Z,8.50
2018-09-18T11:07:42.814Z,8.10
2018-09-18T11:11:45.801Z,7.83
2018-09-18T11:15:48.927Z,8.30
2018-09-18T11:19:51.868Z,7.40
2018-09-18T11:23:54.681Z,7.37
2018-09-18T11:27:57.772Z,7.10
2018-09-18T11:32:00.876Z,10.20
2018-09-18T11:36:03.791Z,7.30
2018-09-18T11:40:06.655Z,7.03
2018-09-18T11:44:09.807Z,8.63
2018-09-18T11:48:12.675Z,7.73
2018-09-18T11:52:15.821Z,11.00
2018-09-18T11:56:18.955Z,8.43
2018-09-18T12:00:21.878Z,7.57
2018-09-18T12:04:24.978Z,7.60
2018-09-18T12:08:27.943Z,7.80
2018-09-18T12:12:30.945Z,11.10
2018-09-18T12:16:34.107Z,8.27
2018-09-18T12:20:37.191Z,10.33
2018-09-18T12:24:40.116Z,7.57
2018-09-18T12:28:43.047Z,10.13
2018-09-18T12:32:46.112Z,12.00
2018-09-18T12:36:48.967Z,7.70
2018-09-18T12:40:52.104Z,7.00
2018-09-18T12:44:55.171Z,6.20
2018-09-18T12:48:58.216Z,5.73
2018-09-18T12:53:01.180Z,6.77
2018-09-18T12:57:04.205Z,5.77
2018-09-18T13:01:06.960Z,4.90
2018-09-18T13:05:09.872Z,6.10
2018-09-18T13:09:13.693Z,5.40
2018-09-18T13:13:16.752Z,5.60
2018-09-18T13:17:19.885Z,7.50
2018-09-18T13:21:22.786Z,5.93
2018-09-18T13:25:25.627Z,7.53
2018-09-18T13:29:28.764Z,6.60
2018-09-18T13:33:31.619Z,5.53
2018-09-18T13:37:34.553Z,7.33
2018-09-18T13:41:37.741Z,6.20
2018-09-18T13:45:40.642Z,4.90
2018-09-18T13:49:43.519Z,5.27
2018-09-18T13:53:46.448Z,7.47
2018-09-18T13:57:49.579Z,5.10
2018-09-18T14:01:52.564Z,7.37
2018-09-18T14:05:55.377Z,6.80
2018-09-18T14:09:58.519Z,5.93
2018-09-18T14:14:01.751Z,5.93
2018-09-18T14:18:04.683Z,5.40
2018-09-18T14:22:07.552Z,5.37
2018-09-18T14:26:10.504Z,5.50
2018-09-18T14:30:13.344Z,7.57
2018-09-18T14:34:16.272Z,6.13
2018-09-18T14:38:19.653Z,13.50
2018-09-18T14:42:22.515Z,6.63
2018-09-18T14:46:25.591Z,12.10
2018-09-18T14:50:28.735Z,6.63
2018-09-18T14:54:31.592Z,10.47
2018-09-18T14:58:34.743Z,7.37
2018-09-18T15:02:37.608Z,7.17
2018-09-18T15:06:40.519Z,8.00
2018-09-18T15:10:43.375Z,8.40
2018-09-18T15:14:46.479Z,6.83
2018-09-18T15:18:49.504Z,7.30
2018-09-18T15:22:52.416Z,6.67
2018-09-18T15:26:55.281Z,7.73
2018-09-18T15:30:58.207Z,6.20
2018-09-18T15:35:01.059Z,6.40
2018-09-18T15:39:05.041Z,5.60
2018-09-18T15:43:07.960Z,6.37
2018-09-18T15:47:11.039Z,5.80
2018-09-18T15:51:13.954Z,7.40
2018-09-18T15:55:17.179Z,8.83
2018-09-18T15:59:19.984Z,5.50
2018-09-18T16:03:22.939Z,6.00
2018-09-18T16:07:25.830Z,5.80
2018-09-18T16:11:29.205Z,5.47
2018-09-18T16:19:35.427Z,7.10
2018-09-18T16:23:38.391Z,6.43
2018-09-18T16:27:41.252Z,6.67
2018-09-18T16:31:44.188Z,5.80
2018-09-18T16:35:47.067Z,4.90
2018-09-18T16:39:50.061Z,5.93
2018-09-18T16:43:53.153Z,7.30
2018-09-18T16:47:56.080Z,6.67
2018-09-18T16:51:58.959Z,7.37
2018-09-18T16:56:02.908Z,6.33
2018-09-18T17:00:05.784Z,7.00
2018-09-18T17:04:08.822Z,7.90
2018-09-18T17:08:11.708Z,6.90
2018-09-18T17:12:14.846Z,7.27
2018-09-18T17:16:17.836Z,6.33
2018-09-18T17:20:20.767Z,6.90
2018-09-18T17:24:23.939Z,6.13
2018-09-18T17:28:27.116Z,7.57
2018-09-18T17:32:29.904Z,6.80
2018-09-18T17:36:33.039Z,7.00
2018-09-18T17:40:36.133Z,5.47
2018-09-18T17:44:39.122Z,7.50
2018-09-18T17:48:42.207Z,6.30
2018-09-18T17:52:45.238Z,5.90
2018-09-18T17:56:48.174Z,6.90
2018-09-18T18:00:51.316Z,7.83
2018-09-18T18:04:54.197Z,7.93
2018-09-18T18:08:57.138Z,7.20
2018-09-18T18:13:00.025Z,5.90
2018-09-18T18:17:03.102Z,5.47
2018-09-18T18:21:05.972Z,8.13
2018-09-18T18:25:09.115Z,7.00
2018-09-18T18:29:12.205Z,7.07
2018-09-18T18:33:15.299Z,6.40
2018-09-18T18:37:18.158Z,6.20
2018-09-18T18:41:21.330Z,5.80
2018-09-18T18:45:24.196Z,6.20
2018-09-18T18:49:31.474Z,5.77
2018-09-18T18:53:34.341Z,5.30
2018-09-18T18:57:37.471Z,5.10
2018-09-18T19:01:40.338Z,5.50
2018-09-18T19:05:43.563Z,5.23
2018-09-18T19:09:46.427Z,5.63
2018-09-18T19:13:49.346Z,5.03
2018-09-18T19:17:52.621Z,4.90
2018-09-18T19:21:55.971Z,5.17
2018-09-18T19:25:59.773Z,4.37
2018-09-18T19:30:02.685Z,4.93
2018-09-18T19:34:05.569Z,6.77
2018-09-18T19:38:08.726Z,7.10
2018-09-18T19:42:11.695Z,17.33
2018-09-18T19:46:14.600Z,7.73
2018-09-18T19:50:18.370Z,9.00
2018-09-18T19:54:22.359Z,6.33
2018-09-18T19:58:25.264Z,10.47
2018-09-18T20:02:28.503Z,8.13
2018-09-18T20:06:31.383Z,6.70
2018-09-18T20:10:34.307Z,7.50
2018-09-18T20:14:37.390Z,6.77
2018-09-18T20:18:40.417Z,6.57
2018-09-18T20:22:43.306Z,7.13
2018-09-18T20:26:46.239Z,5.20
2018-09-18T20:30:51.970Z,6.63
2018-09-18T20:34:54.925Z,6.23
2018-09-18T20:38:58.015Z,7.67
2018-09-18T20:43:00.950Z,8.70
2018-09-18T20:47:03.817Z,13.20
2018-09-18T20:51:07.133Z,8.63
2018-09-18T20:55:10.001Z,8.90
2018-09-18T20:59:12.920Z,5.77
2018-09-18T21:03:15.819Z,6.63
2018-09-18T21:07:18.952Z,5.10
2018-09-18T21:11:21.825Z,7.40
2018-09-18T21:15:24.737Z,5.30
2018-09-18T21:19:27.920Z,5.80
2018-09-18T21:23:31.079Z,5.07
2018-09-18T21:27:34.178Z,4.83
2018-09-18T21:31:37.087Z,7.60
2018-09-18T21:35:39.972Z,5.40
2018-09-18T21:39:43.083Z,4.87
2018-09-18T21:43:45.938Z,6.10
2018-09-18T21:47:48.866Z,5.00
2018-09-18T21:51:51.766Z,5.73
2018-09-18T21:55:54.645Z,5.97
2018-09-18T21:59:57.743Z,6.70
2018-09-18T22:04:00.652Z,5.07
2018-09-18T22:08:03.799Z,5.70
2018-09-18T22:12:06.715Z,5.43
2018-09-18T22:16:09.586Z,5.50
2018-09-18T22:20:12.836Z,5.60
2018-09-18T22:24:15.715Z,5.33
2018-09-18T22:28:18.637Z,5.13
2018-09-18T22:32:21.495Z,4.70
2018-09-18T22:36:24.413Z,5.00
2018-09-18T22:40:27.596Z,4.50
2018-09-18T22:44:30.511Z,5.50
2018-09-18T22:48:33.599Z,5.80
2018-09-18T22:52:36.676Z,5.87
2018-09-18T22:56:39.551Z,6.17
2018-09-18T23:00:42.672Z,6.73
2018-09-18T23:04:45.732Z,5.33
2018-09-18T23:08:48.679Z,5.00
2018-09-18T23:12:51.537Z,4.77
2018-09-18T23:16:54.698Z,5.10
2018-09-18T23:20:57.558Z,3.93
2018-09-18T23:25:00.503Z,6.03
2018-09-18T23:29:03.591Z,4.47
2018-09-18T23:33:06.671Z,4.33
2018-09-18T23:37:09.840Z,4.40
2018-09-18T23:41:12.942Z,6.13
2018-09-18T23:45:15.808Z,5.30
2018-09-18T23:49:18.742Z,5.90
2018-09-18T23:53:21.963Z,4.20
2018-09-18T23:57:24.906Z,4.70
